Terminal Aerodrome Forecast
Issued by NWS

Current Version | Previous Version | Graphics & Text | Print | Product List | Glossary On
Versions: 1 2 3 4 5 6 7 8 9 10 11 12 13 14 15 16 17 18 19 20 21
000
FTUS41 KILN 241500 AAB
TAFLUK
TAF AMD
KLUK 241557Z 2416/2512 03010KT P6SM BKN035
     FM242000 03010KT P6SM SCT035
     FM242300 04003KT P6SM SKC
     FM250600 00000KT 3SM BR SKC
     FM250800 00000KT 1SM BR SKC=

USA.gov is the U.S. government's official web portal to all federal, state and local government web resources and services.